createdAt,value
2018-08-18T00:00:25.480Z,7.33
2018-08-18T00:02:54.825Z,7.20
2018-08-18T00:05:24.379Z,6.03
2018-08-18T00:07:53.621Z,7.10
2018-08-18T00:10:23.510Z,8.20
2018-08-18T00:12:53.116Z,7.33
2018-08-18T00:15:23.365Z,7.47
2018-08-18T00:17:52.740Z,6.83
2018-08-18T00:20:24.247Z,6.80
2018-08-18T00:22:53.610Z,7.80
2018-08-18T00:25:23.053Z,7.43
2018-08-18T00:27:52.619Z,7.67
2018-08-18T00:30:27.596Z,8.03
2018-08-18T00:32:56.952Z,8.07
2018-08-18T00:35:26.423Z,8.13
2018-08-18T00:37:55.933Z,7.00
2018-08-18T00:40:25.672Z,8.60
2018-08-18T00:42:55.321Z,7.93
2018-08-18T00:45:25.185Z,8.80
2018-08-18T00:47:54.686Z,8.27
2018-08-18T00:50:38.073Z,8.00
2018-08-18T00:53:09.216Z,8.73
2018-08-18T00:55:38.952Z,8.30
2018-08-18T00:58:16.637Z,8.47
2018-08-18T01:00:49.961Z,8.07
2018-08-18T01:03:19.197Z,7.47
2018-08-18T01:05:48.671Z,8.47
2018-08-18T01:08:18.133Z,9.53
2018-08-18T01:10:47.539Z,8.10
2018-08-18T01:13:17.091Z,9.30
2018-08-18T01:15:46.440Z,8.30
2018-08-18T01:18:15.968Z,8.60
2018-08-18T01:20:45.289Z,7.40
2018-08-18T01:23:14.635Z,8.00
2018-08-18T01:25:44.129Z,8.87
2018-08-18T01:28:13.444Z,9.20
2018-08-18T01:30:42.826Z,7.60
2018-08-18T01:33:12.255Z,7.50
2018-08-18T01:35:41.580Z,8.10
2018-08-18T01:38:10.815Z,8.60
2018-08-18T01:40:40.093Z,9.00
2018-08-18T01:43:09.327Z,8.20
2018-08-18T01:45:38.547Z,8.50
2018-08-18T01:48:07.997Z,9.03
2018-08-18T01:50:37.323Z,8.00
2018-08-18T01:53:06.748Z,8.20
2018-08-18T01:55:36.081Z,7.60
2018-08-18T01:58:05.399Z,8.37
2018-08-18T02:00:34.833Z,8.20
2018-08-18T02:03:04.161Z,8.10
2018-08-18T02:05:33.306Z,9.67
2018-08-18T02:08:02.504Z,8.53
2018-08-18T02:10:31.748Z,8.63
2018-08-18T02:13:02.978Z,8.30
2018-08-18T02:15:32.809Z,9.10
2018-08-18T02:18:02.040Z,8.93
2018-08-18T02:20:31.333Z,8.70
2018-08-18T02:23:00.755Z,8.27
2018-08-18T02:25:29.987Z,9.00
2018-08-18T02:27:59.221Z,10.10
2018-08-18T02:30:28.406Z,9.10
2018-08-18T02:32:57.637Z,8.03
2018-08-18T02:35:27.395Z,9.00
2018-08-18T02:37:56.518Z,9.67
2018-08-18T02:40:25.832Z,9.70
2018-08-18T02:42:54.921Z,9.40
2018-08-18T02:45:24.128Z,9.40
2018-08-18T02:48:15.518Z,8.97
2018-08-18T02:50:48.839Z,8.67
2018-08-18T02:53:27.287Z,8.73
2018-08-18T02:55:57.278Z,8.30
2018-08-18T02:58:26.390Z,9.60
2018-08-18T03:00:55.625Z,9.70
2018-08-18T03:03:24.973Z,10.20
2018-08-18T03:05:57.940Z,10.10
2018-08-18T03:08:27.391Z,9.77
2018-08-18T03:10:56.874Z,9.20
2018-08-18T03:13:27.117Z,9.77
2018-08-18T03:15:57.956Z,9.37
2018-08-18T03:18:36.255Z,9.50
2018-08-18T03:21:05.931Z,9.70
2018-08-18T03:23:35.953Z,9.50
2018-08-18T03:26:05.478Z,10.17
2018-08-18T03:28:41.691Z,8.60
2018-08-18T03:31:11.009Z,9.77
2018-08-18T03:33:40.402Z,8.90
2018-08-18T03:36:23.856Z,9.13
2018-08-18T03:38:54.341Z,9.40
2018-08-18T03:41:24.430Z,8.33
2018-08-18T03:43:54.685Z,9.57
2018-08-18T03:46:24.142Z,8.93
2018-08-18T03:48:53.511Z,8.80
2018-08-18T03:51:28.841Z,10.40
2018-08-18T03:53:58.345Z,9.67
2018-08-18T03:56:27.820Z,9.30
2018-08-18T03:58:58.569Z,10.27
2018-08-18T04:01:56.656Z,9.47
2018-08-18T04:04:28.168Z,8.83
2018-08-18T04:06:58.575Z,10.87
2018-08-18T04:09:30.956Z,10.03
2018-08-18T04:12:02.075Z,9.60
2018-08-18T04:14:36.538Z,10.27
2018-08-18T04:17:11.503Z,9.20
2018-08-18T04:19:41.024Z,10.13
2018-08-18T04:22:10.645Z,10.00
2018-08-18T04:24:45.646Z,9.07
2018-08-18T04:27:26.659Z,9.43
2018-08-18T04:29:55.929Z,8.90
2018-08-18T04:32:25.022Z,9.53
2018-08-18T04:34:54.248Z,10.03
2018-08-18T04:37:23.389Z,10.80
2018-08-18T04:39:52.843Z,9.70
2018-08-18T04:42:22.111Z,10.40
2018-08-18T04:44:51.621Z,9.90
2018-08-18T04:47:28.503Z,9.10
2018-08-18T04:49:57.862Z,10.20
2018-08-18T04:52:27.123Z,10.77
2018-08-18T04:54:56.237Z,9.50
2018-08-18T04:57:25.414Z,9.17
2018-08-18T04:59:56.167Z,10.00
2018-08-18T05:02:25.401Z,9.43
2018-08-18T05:04:54.584Z,10.43
2018-08-18T05:07:23.717Z,9.87
2018-08-18T05:09:53.263Z,9.93
2018-08-18T05:12:22.462Z,9.60
2018-08-18T05:14:51.673Z,10.27
2018-08-18T05:17:20.901Z,9.90
2018-08-18T05:19:55.540Z,10.00
2018-08-18T05:22:24.736Z,9.13
2018-08-18T05:24:53.970Z,9.43
2018-08-18T05:27:23.165Z,10.20
2018-08-18T05:29:52.361Z,10.70
2018-08-18T05:32:22.166Z,10.37
2018-08-18T05:34:51.262Z,9.03
2018-08-18T05:37:20.598Z,9.10
2018-08-18T05:39:50.056Z,10.33
2018-08-18T05:42:19.539Z,8.63
2018-08-18T05:44:48.993Z,8.60
2018-08-18T05:49:46.860Z,6.77
2018-08-18T05:52:16.378Z,7.77
2018-08-18T05:54:45.772Z,8.10
2018-08-18T05:57:15.326Z,7.97
2018-08-18T05:59:44.908Z,7.70
2018-08-18T06:02:14.392Z,7.87
2018-08-18T06:04:43.590Z,8.30
2018-08-18T06:07:13.300Z,7.67
2018-08-18T06:09:42.486Z,7.50
2018-08-18T06:12:17.158Z,7.77
2018-08-18T06:14:48.980Z,7.60
2018-08-18T06:17:23.423Z,8.63
2018-08-18T06:19:52.889Z,7.13
2018-08-18T06:22:22.306Z,7.40
2018-08-18T06:24:52.401Z,7.43
2018-08-18T06:27:25.429Z,8.00
2018-08-18T06:29:55.014Z,7.60
2018-08-18T06:32:24.478Z,7.47
2018-08-18T06:34:54.229Z,8.10
2018-08-18T06:37:23.689Z,7.57
2018-08-18T06:39:57.748Z,8.50
2018-08-18T06:42:30.847Z,7.93
2018-08-18T06:45:00.160Z,7.60
2018-08-18T06:47:29.810Z,8.47
2018-08-18T06:49:59.560Z,8.13
2018-08-18T06:52:30.361Z,8.50
2018-08-18T06:54:59.840Z,7.30
2018-08-18T06:57:41.072Z,7.70
2018-08-18T07:00:16.916Z,7.80
2018-08-18T07:02:46.385Z,7.50
2018-08-18T07:05:17.082Z,8.00
2018-08-18T07:07:47.862Z,7.23
2018-08-18T07:10:36.896Z,7.13
2018-08-18T07:13:08.204Z,7.50
2018-08-18T07:15:38.674Z,8.20
2018-08-18T07:18:10.258Z,7.90
2018-08-18T07:20:40.211Z,8.83
2018-08-18T07:23:09.850Z,8.77
2018-08-18T07:25:46.915Z,8.00
2018-08-18T07:28:19.814Z,8.60
2018-08-18T07:30:49.302Z,8.73
2018-08-18T07:33:18.829Z,7.90
2018-08-18T07:35:48.157Z,7.90
2018-08-18T07:38:17.330Z,8.90
2018-08-18T07:40:47.952Z,8.50
2018-08-18T07:43:20.154Z,7.70
2018-08-18T07:45:51.284Z,8.10
2018-08-18T07:48:21.073Z,6.33
2018-08-18T07:50:50.228Z,6.60
2018-08-18T07:53:19.629Z,5.63
2018-08-18T07:55:48.708Z,4.83
2018-08-18T07:58:21.019Z,5.40
2018-08-18T08:00:50.612Z,5.73
2018-08-18T08:03:20.727Z,5.50
2018-08-18T08:05:50.515Z,5.60
2018-08-18T08:08:20.106Z,6.07
2018-08-18T08:10:50.742Z,5.40
2018-08-18T08:13:20.588Z,5.87
2018-08-18T08:15:49.904Z,4.57
2018-08-18T08:18:20.001Z,4.77
2018-08-18T08:20:50.787Z,4.30
2018-08-18T08:23:20.065Z,3.87
2018-08-18T08:25:49.695Z,3.80
2018-08-18T08:28:19.305Z,3.47
2018-08-18T08:30:48.528Z,3.57
2018-08-18T08:33:32.200Z,4.27
2018-08-18T08:36:01.390Z,3.20
2018-08-18T08:38:41.792Z,3.23
2018-08-18T08:41:12.368Z,2.90
2018-08-18T08:43:41.714Z,3.80
2018-08-18T08:46:11.007Z,3.57
2018-08-18T08:48:40.346Z,3.10
2018-08-18T08:51:09.786Z,4.57
2018-08-18T08:53:39.102Z,3.40
2018-08-18T08:56:08.644Z,3.27
2018-08-18T08:58:42.376Z,3.27
2018-08-18T09:01:12.453Z,3.00
2018-08-18T09:03:42.439Z,3.10
2018-08-18T09:06:12.169Z,3.00
2018-08-18T09:08:44.469Z,2.93
2018-08-18T09:11:13.593Z,3.80
2018-08-18T09:13:56.896Z,3.80
2018-08-18T09:16:26.853Z,3.37
2018-08-18T09:18:56.229Z,3.00
2018-08-18T09:21:25.714Z,2.90
2018-08-18T09:23:55.232Z,2.50
2018-08-18T09:26:24.532Z,2.93
2018-08-18T09:28:53.756Z,3.10
2018-08-18T09:31:22.986Z,2.97
2018-08-18T09:33:52.226Z,2.83
2018-08-18T09:36:21.763Z,2.50
2018-08-18T09:38:50.914Z,3.57
2018-08-18T09:41:20.128Z,3.70
2018-08-18T09:43:49.358Z,3.10
2018-08-18T09:46:19.031Z,4.03
2018-08-18T09:48:48.177Z,4.37
2018-08-18T09:51:17.317Z,4.77
2018-08-18T09:53:46.536Z,5.10
2018-08-18T09:56:15.787Z,4.73
2018-08-18T09:58:44.938Z,3.90
2018-08-18T10:01:14.149Z,4.23
2018-08-18T10:03:43.465Z,4.53
2018-08-18T10:06:12.902Z,3.53
2018-08-18T10:08:42.062Z,4.87
2018-08-18T10:11:11.300Z,3.70
2018-08-18T10:13:40.697Z,3.30
2018-08-18T10:16:09.848Z,3.03
2018-08-18T10:18:45.055Z,2.80
2018-08-18T10:21:14.482Z,3.17
2018-08-18T10:23:43.906Z,2.60
2018-08-18T10:26:13.966Z,2.43
2018-08-18T10:28:43.354Z,2.97
2018-08-18T10:31:13.505Z,2.77
2018-08-18T10:33:43.023Z,3.20
2018-08-18T10:36:12.562Z,2.87
2018-08-18T10:38:41.946Z,2.50
2018-08-18T10:41:11.226Z,2.97
2018-08-18T10:43:40.380Z,3.27
2018-08-18T10:46:09.704Z,3.77
2018-08-18T10:48:39.006Z,3.70
2018-08-18T10:52:27.887Z,3.17
2018-08-18T10:54:57.837Z,3.13
2018-08-18T10:57:38.746Z,2.90
2018-08-18T11:00:10.740Z,3.60
2018-08-18T11:02:42.643Z,3.10
2018-08-18T11:05:13.398Z,3.93
2018-08-18T11:07:43.059Z,3.77
2018-08-18T11:10:12.508Z,3.40
2018-08-18T11:12:41.889Z,3.90
2018-08-18T11:15:12.084Z,3.33
2018-08-18T11:17:41.752Z,3.27
2018-08-18T11:20:17.908Z,4.40
2018-08-18T11:22:52.633Z,3.40
2018-08-18T11:25:24.204Z,3.90
2018-08-18T11:27:54.486Z,3.17
2018-08-18T11:30:24.239Z,3.20
2018-08-18T11:32:54.922Z,3.30
2018-08-18T11:35:24.867Z,2.50
2018-08-18T11:38:02.967Z,3.40
2018-08-18T11:40:32.437Z,3.23
2018-08-18T11:43:03.226Z,3.80
2018-08-18T11:45:34.224Z,3.20
2018-08-18T11:48:11.776Z,3.53
2018-08-18T11:50:41.893Z,3.03
2018-08-18T11:53:11.763Z,3.00
2018-08-18T11:55:41.054Z,3.30
2018-08-18T11:58:25.993Z,3.17
2018-08-18T12:00:57.065Z,3.50
2018-08-18T12:03:32.598Z,3.20
2018-08-18T12:06:04.689Z,3.47
2018-08-18T12:08:36.219Z,3.70
2018-08-18T12:11:07.969Z,3.50
2018-08-18T12:13:43.013Z,4.00
2018-08-18T12:16:17.422Z,3.50
2018-08-18T12:18:47.681Z,4.07
2018-08-18T12:21:17.525Z,3.60
2018-08-18T12:23:49.580Z,3.80
2018-08-18T12:26:21.606Z,3.77
2018-08-18T12:28:54.074Z,3.80
2018-08-18T12:31:25.022Z,3.47
2018-08-18T12:33:55.026Z,3.43
2018-08-18T12:36:25.158Z,3.87
2018-08-18T12:38:57.950Z,3.87
2018-08-18T12:41:27.619Z,3.83
2018-08-18T12:43:58.730Z,3.93
2018-08-18T12:46:36.639Z,4.60
2018-08-18T12:49:07.028Z,4.20
2018-08-18T12:51:36.358Z,3.73
2018-08-18T13:07:05.015Z,3.83
2018-08-18T13:09:34.751Z,3.87
2018-08-18T13:12:04.352Z,4.40
2018-08-18T13:14:33.711Z,4.57
2018-08-18T13:17:03.184Z,3.97
2018-08-18T13:19:35.012Z,4.20
2018-08-18T13:22:04.686Z,4.10
2018-08-18T13:24:34.488Z,4.73
2018-08-18T13:27:04.078Z,5.00
2018-08-18T13:29:33.602Z,4.80
2018-08-18T13:32:03.024Z,4.43
2018-08-18T13:34:32.302Z,4.37
2018-08-18T13:37:02.045Z,3.83
2018-08-18T13:39:31.413Z,4.60
2018-08-18T13:42:10.633Z,5.00
2018-08-18T13:44:39.928Z,5.37
2018-08-18T13:47:09.341Z,5.00
2018-08-18T13:49:38.593Z,4.60
2018-08-18T13:52:07.940Z,4.63
2018-08-18T13:54:41.216Z,4.77
2018-08-18T13:57:10.874Z,5.10
2018-08-18T13:59:40.962Z,5.20
2018-08-18T14:02:11.065Z,4.70
2018-08-18T14:04:41.046Z,4.40
2018-08-18T14:07:10.625Z,4.97
2018-08-18T14:09:44.884Z,4.50
2018-08-18T14:12:15.583Z,4.57
2018-08-18T14:14:45.574Z,4.40
2018-08-18T14:17:15.639Z,4.13
2018-08-18T14:19:45.000Z,5.10
2018-08-18T14:22:16.289Z,4.20
2018-08-18T14:24:45.701Z,4.00
2018-08-18T14:27:17.329Z,4.30
2018-08-18T14:29:46.640Z,4.00
2018-08-18T14:32:21.200Z,4.90
2018-08-18T14:34:56.415Z,4.60
2018-08-18T14:37:25.817Z,3.67
2018-08-18T14:39:55.345Z,3.93
2018-08-18T14:42:25.101Z,3.50
2018-08-18T14:44:56.975Z,3.67
2018-08-18T14:47:26.027Z,3.80
2018-08-18T14:50:13.044Z,3.53
2018-08-18T14:52:45.656Z,3.43
2018-08-18T14:55:15.557Z,4.57
2018-08-18T14:58:15.947Z,4.00
2018-08-18T15:00:45.717Z,4.20
2018-08-18T15:03:15.256Z,4.43
2018-08-18T15:05:45.317Z,3.50
2018-08-18T15:08:14.828Z,4.83
2018-08-18T15:10:46.200Z,6.20
2018-08-18T15:13:16.128Z,4.33
2018-08-18T15:15:45.468Z,4.40
2018-08-18T15:18:16.193Z,3.40
2018-08-18T15:20:46.277Z,3.13
2018-08-18T15:23:17.257Z,2.80
2018-08-18T15:25:47.817Z,2.83
2018-08-18T15:28:18.413Z,3.27
2018-08-18T15:30:48.879Z,2.67
2018-08-18T15:33:20.359Z,3.50
2018-08-18T15:35:50.668Z,3.23
2018-08-18T15:38:30.509Z,2.60
2018-08-18T15:41:00.202Z,3.70
2018-08-18T15:43:29.794Z,3.10
2018-08-18T15:46:00.994Z,3.50
2018-08-18T15:48:30.719Z,3.60
2018-08-18T15:51:00.268Z,2.70
2018-08-18T15:53:59.206Z,2.63
2018-08-18T15:56:29.495Z,2.00
2018-08-18T15:58:59.592Z,2.60
2018-08-18T16:01:30.262Z,2.30
2018-08-18T16:04:01.103Z,2.40
2018-08-18T16:06:30.440Z,2.27
2018-08-18T16:08:59.891Z,2.47
2018-08-18T16:11:29.512Z,2.40
2018-08-18T16:13:58.971Z,2.93
2018-08-18T16:16:28.125Z,2.73
2018-08-18T16:19:03.268Z,2.70
2018-08-18T16:21:34.835Z,2.47
2018-08-18T16:24:04.336Z,2.30
2018-08-18T16:26:33.491Z,2.67
2018-08-18T16:29:02.713Z,3.10
2018-08-18T16:31:31.940Z,2.67
2018-08-18T16:34:01.105Z,2.70
2018-08-18T16:36:35.682Z,2.50
2018-08-18T16:39:05.156Z,2.33
2018-08-18T16:41:35.288Z,2.37
2018-08-18T16:44:04.469Z,2.20
2018-08-18T16:46:33.588Z,2.40
2018-08-18T16:49:02.661Z,2.87
2018-08-18T16:51:31.798Z,2.50
2018-08-18T16:54:18.719Z,3.37
2018-08-18T16:56:48.001Z,3.20
2018-08-18T16:59:17.208Z,3.47
2018-08-18T17:01:46.396Z,2.83
2018-08-18T17:04:34.663Z,2.33
2018-08-18T17:07:09.097Z,2.60
2018-08-18T17:09:40.745Z,3.10
2018-08-18T17:12:18.254Z,3.53
2018-08-18T17:14:47.650Z,2.37
2018-08-18T17:17:16.997Z,2.30
2018-08-18T17:19:47.003Z,2.47
2018-08-18T17:22:16.669Z,2.07
2018-08-18T17:24:46.028Z,2.10
2018-08-18T17:27:15.365Z,2.50
2018-08-18T17:29:46.663Z,2.27
2018-08-18T17:32:15.861Z,3.07
2018-08-18T17:34:44.979Z,2.50
2018-08-18T17:37:14.199Z,3.00
2018-08-18T17:39:43.368Z,3.57
2018-08-18T17:42:13.320Z,4.63
2018-08-18T17:44:42.518Z,8.03
2018-08-18T17:47:12.237Z,6.53
2018-08-18T17:49:47.116Z,4.43
2018-08-18T17:52:16.637Z,3.47
2018-08-18T17:55:01.169Z,2.93
2018-08-18T17:57:30.438Z,3.10
2018-08-18T18:00:04.071Z,3.40
2018-08-18T18:02:35.361Z,3.30
2018-08-18T18:05:08.022Z,3.50
2018-08-18T18:07:37.105Z,3.73
2018-08-18T18:10:06.240Z,3.27
2018-08-18T18:12:35.924Z,2.90
2018-08-18T18:15:41.026Z,2.77
2018-08-18T18:18:12.536Z,2.80
2018-08-18T18:20:43.367Z,2.43
2018-08-18T18:23:13.050Z,2.47
2018-08-18T18:38:41.858Z,2.90
2018-08-18T18:41:11.351Z,3.53
2018-08-18T18:43:43.092Z,3.27
2018-08-18T18:46:12.337Z,3.07
2018-08-18T18:48:41.735Z,3.07
2018-08-18T18:51:10.914Z,2.90
2018-08-18T18:53:47.008Z,2.70
2018-08-18T18:56:16.346Z,2.73
2018-08-18T18:58:45.461Z,2.90
2018-08-18T19:01:17.285Z,3.10
2018-08-18T19:03:46.625Z,3.47
2018-08-18T19:06:15.741Z,3.60
2018-08-18T19:08:57.726Z,4.10
2018-08-18T19:11:27.449Z,3.50
2018-08-18T19:13:56.596Z,3.57
2018-08-18T19:16:25.872Z,4.10
2018-08-18T19:18:54.833Z,3.50
2018-08-18T19:21:28.982Z,3.73
2018-08-18T19:23:58.207Z,4.90
2018-08-18T19:26:36.145Z,4.57
2018-08-18T19:29:05.143Z,4.50
2018-08-18T19:31:35.386Z,4.50
2018-08-18T19:34:13.177Z,4.60
2018-08-18T19:36:55.152Z,4.40
2018-08-18T19:39:26.734Z,4.50
2018-08-18T19:42:03.018Z,4.20
2018-08-18T19:44:32.509Z,5.37
2018-08-18T19:47:01.869Z,5.60
2018-08-18T19:49:41.229Z,5.83
2018-08-18T19:52:12.964Z,4.60
2018-08-18T20:07:42.160Z,4.50
2018-08-18T20:10:11.445Z,4.63
2018-08-18T20:12:40.806Z,4.60
2018-08-18T20:15:10.169Z,6.37
2018-08-18T20:17:39.515Z,7.13
2018-08-18T20:20:08.993Z,6.60
2018-08-18T20:22:38.098Z,6.37
2018-08-18T20:25:07.529Z,6.47
2018-08-18T20:27:37.114Z,5.60
2018-08-18T20:30:06.411Z,6.00
2018-08-18T20:32:35.685Z,6.03
2018-08-18T20:35:05.175Z,5.83
2018-08-18T20:37:34.636Z,6.07
2018-08-18T20:40:04.377Z,5.70
2018-08-18T20:42:39.565Z,6.73
2018-08-18T20:45:10.200Z,6.20
2018-08-18T20:47:39.914Z,6.17
2018-08-18T20:50:10.788Z,6.30
2018-08-18T20:52:40.472Z,5.77
2018-08-18T20:55:10.490Z,7.10
2018-08-18T20:57:39.957Z,6.40
2018-08-18T21:00:11.967Z,6.83
2018-08-18T21:02:41.287Z,6.13
2018-08-18T21:05:12.141Z,6.13
2018-08-18T21:07:41.794Z,6.17
2018-08-18T21:10:12.604Z,7.20
2018-08-18T21:12:49.295Z,9.50
2018-08-18T21:15:18.780Z,8.00
2018-08-18T21:17:48.153Z,7.53
2018-08-18T21:20:18.582Z,5.70
2018-08-18T21:22:48.112Z,6.13
2018-08-18T21:25:17.469Z,6.00
2018-08-18T21:27:46.912Z,5.57
2018-08-18T21:30:17.970Z,6.00
2018-08-18T21:32:47.071Z,6.20
2018-08-18T21:35:16.544Z,5.63
2018-08-18T21:37:46.752Z,5.93
2018-08-18T21:40:15.896Z,6.10
2018-08-18T21:42:45.065Z,6.07
2018-08-18T21:45:14.276Z,6.13
2018-08-18T21:47:43.453Z,6.40
2018-08-18T21:50:13.155Z,6.20
2018-08-18T21:52:42.461Z,6.63
2018-08-18T21:55:11.582Z,6.20
2018-08-18T21:57:53.201Z,5.90
2018-08-18T22:00:22.882Z,6.60
2018-08-18T22:02:52.041Z,6.43
2018-08-18T22:05:22.025Z,6.77
2018-08-18T22:07:51.865Z,6.40
2018-08-18T22:10:21.316Z,8.03
2018-08-18T22:12:50.477Z,7.30
2018-08-18T22:15:21.948Z,8.00
2018-08-18T22:17:53.695Z,6.60
2018-08-18T22:20:24.249Z,6.40
2018-08-18T22:22:53.440Z,7.43
2018-08-18T22:25:22.809Z,7.57
2018-08-18T22:27:53.562Z,7.00
2018-08-18T22:30:26.279Z,7.20
2018-08-18T22:32:55.849Z,6.97
2018-08-18T22:35:25.103Z,5.67
2018-08-18T22:37:54.460Z,6.80
2018-08-18T22:40:23.981Z,6.47
2018-08-18T22:42:53.402Z,6.33
2018-08-18T22:45:25.613Z,5.93
2018-08-18T22:47:54.632Z,7.43
2018-08-18T22:50:23.761Z,6.97
2018-08-18T22:52:54.020Z,6.93
2018-08-18T22:55:23.284Z,6.80
2018-08-18T22:58:01.680Z,6.60
2018-08-18T23:00:33.995Z,7.10
2018-08-18T23:03:03.303Z,6.90
2018-08-18T23:05:32.617Z,6.50
2018-08-18T23:08:01.920Z,6.97
2018-08-18T23:10:32.073Z,7.10
2018-08-18T23:13:02.428Z,6.70
2018-08-18T23:15:31.808Z,7.40
2018-08-18T23:18:00.917Z,6.60
2018-08-18T23:20:29.996Z,7.43
2018-08-18T23:23:00.370Z,7.90
2018-08-18T23:25:30.698Z,7.97
2018-08-18T23:28:00.251Z,7.50
2018-08-18T23:30:37.027Z,7.57
2018-08-18T23:33:08.082Z,7.67
2018-08-18T23:35:37.992Z,7.00
2018-08-18T23:38:07.341Z,7.20
2018-08-18T23:40:37.277Z,7.50
2018-08-18T23:43:06.477Z,8.60
2018-08-18T23:45:41.027Z,7.70
2018-08-18T23:48:12.399Z,7.53
2018-08-18T23:50:42.622Z,7.17
2018-08-18T23:53:14.750Z,7.23
2018-08-18T23:55:50.568Z,7.23
2018-08-18T23:58:21.597Z,6.90
